Time;durP1;ratioP1;P1;durP2;ratioP2;P2;SDS_P1;SDS_P2;PMS_P1;PMS_P2;Temp;Humidity;BMP_temperature;BMP_pressure;BME280_temperature;BME280_humidity;BME280_pressure;Samples;Min_cycle;Max_cycle;Signal;HPM_P1;HPM_P2
2022/10/29 00:02:13;;;;;;;21.50;10.20;;;16.00;1.00;;;;;;5084826;28;20202;-70
2022/10/29 00:04:40;;;;;;;24.10;10.30;;;16.10;1.00;;;;;;5081214;28;20744;-72
2022/10/29 00:07:07;;;;;;;19.45;8.70;;;16.10;1.00;;;;;;5101003;28;20645;-72
2022/10/29 00:09:34;;;;;;;16.45;7.88;;;16.10;1.00;;;;;;5085859;28;20209;-68
2022/10/29 00:12:01;;;;;;;17.58;9.20;;;16.10;1.00;;;;;;5099149;28;20570;-72
2022/10/29 00:14:28;;;;;;;22.20;8.73;;;16.20;1.00;;;;;;5098190;28;20206;-73
2022/10/29 00:16:55;;;;;;;18.27;9.45;;;16.20;1.00;;;;;;5084671;28;20210;-73
2022/10/29 00:19:22;;;;;;;19.35;9.52;;;16.30;1.00;;;;;;5084083;28;20198;-68
2022/10/29 00:21:50;;;;;;;30.15;18.65;;;16.40;1.00;;;;;;5095761;28;20276;-72
2022/10/29 00:24:17;;;;;;;55.78;40.00;;;16.50;1.00;;;;;;5078343;28;20206;-71
2022/10/29 00:26:44;;;;;;;78.93;56.92;;;16.60;1.00;;;;;;5097894;28;20229;-72
2022/10/29 00:29:11;;;;;;;31.27;19.67;;;16.60;1.00;;;;;;5080964;28;20210;-72
2022/10/29 00:31:38;;;;;;;41.05;29.27;;;16.60;1.00;;;;;;5062983;28;20709;-72
2022/10/29 00:34:05;;;;;;;31.02;21.00;;;16.50;1.00;;;;;;5095488;28;20549;-73
2022/10/29 00:36:32;;;;;;;22.25;14.48;;;16.60;1.00;;;;;;5097275;28;20294;-73
2022/10/29 00:38:59;;;;;;;53.72;34.58;;;16.50;1.00;;;;;;5097610;28;20190;-72
2022/10/29 00:41:27;;;;;;;21.88;10.18;;;16.30;1.00;;;;;;5098899;28;20280;-71
2022/10/29 00:44:13;;;;;;;34.75;18.88;;;16.30;1.00;;;;;;5099396;28;20280;-70
2022/10/29 00:46:42;;;;;;;46.10;29.98;;;16.30;1.00;;;;;;5081863;28;20960;-71
2022/10/29 00:49:11;;;;;;;48.22;35.03;;;16.30;1.00;;;;;;5098305;28;21146;-71
2022/10/29 00:51:38;;;;;;;112.57;55.95;;;16.30;1.00;;;;;;5095889;28;20493;-72
2022/10/29 00:54:09;;;;;;;15.45;7.68;;;16.50;1.00;;;;;;5096987;28;20200;-70
2022/10/29 00:56:40;;;;;;;14.27;7.63;;;16.60;99.90;;;;;;5084002;28;20220;-71
2022/10/29 00:59:08;;;;;;;14.00;7.85;;;16.40;1.00;;;;;;5063657;28;20205;-73
2022/10/29 01:01:36;;;;;;;21.52;10.55;;;16.40;1.00;;;;;;5098275;28;20209;-71
2022/10/29 01:04:04;;;;;;;19.60;7.22;;;16.30;1.00;;;;;;5097806;28;20194;-68
2022/10/29 01:06:32;;;;;;;20.63;8.50;;;16.10;1.00;;;;;;5095918;28;20259;-70
2022/10/29 01:08:59;;;;;;;19.17;8.32;;;16.00;1.00;;;;;;5095073;27;20205;-69
2022/10/29 01:11:35;;;;;;;18.20;8.35;;;15.80;1.00;;;;;;5066625;28;20321;-70
2022/10/29 01:14:20;;;;;;;19.50;7.75;;;15.80;1.00;;;;;;5084568;28;20538;-69
2022/10/29 01:17:06;;;;;;;25.23;8.25;;;15.80;1.00;;;;;;5098219;28;20194;-69
2022/10/29 01:19:56;;;;;;;18.38;7.90;;;15.70;1.00;;;;;;5097542;28;20197;-70
2022/10/29 01:23:07;;;;;;;18.90;10.10;;;15.70;1.00;;;;;;5074581;28;20208;-69
2022/10/29 01:26:05;;;;;;;17.48;7.93;;;15.90;1.00;;;;;;5056363;28;20213;-69
2022/10/29 01:29:04;;;;;;;18.23;7.97;;;15.80;1.00;;;;;;5061802;28;20194;-69
2022/10/29 01:32:02;;;;;;;21.80;8.43;;;15.90;1.00;;;;;;5077102;28;20199;-70
2022/10/29 01:34:53;;;;;;;28.20;14.57;;;15.90;1.00;;;;;;5064290;28;20214;-70
2022/10/29 01:37:40;;;;;;;22.35;11.73;;;15.90;1.00;;;;;;5062125;28;20231;-70
2022/10/29 01:40:32;;;;;;;21.77;10.38;;;15.80;1.00;;;;;;5061382;28;20191;-70
2022/10/29 01:43:05;;;;;;;18.75;9.98;;;15.80;1.00;;;;;;5058211;28;20276;-70
2022/10/29 01:45:47;;;;;;;20.38;10.20;;;15.70;1.00;;;;;;5077541;28;20202;-72
2022/10/29 01:48:19;;;;;;;21.88;10.00;;;15.70;1.00;;;;;;5066136;28;20226;-71
2022/10/29 01:50:51;;;;;;;19.67;10.63;;;15.70;1.00;;;;;;5077870;28;20209;-71
2022/10/29 01:53:19;;;;;;;21.63;10.73;;;15.60;1.00;;;;;;5063263;28;20193;-72
2022/10/29 01:55:45;;;;;;;22.40;9.05;;;15.50;84.90;;;;;;5059565;28;20678;-71
2022/10/29 01:58:13;;;;;;;15.88;8.43;;;15.40;99.90;;;;;;5059271;28;20669;-71
2022/10/29 02:01:05;;;;;;;24.13;8.55;;;15.40;99.90;;;;;;5077046;28;20200;-70
2022/10/29 02:03:45;;;;;;;21.15;8.38;;;15.30;99.90;;;;;;5058078;28;20187;-71
2022/10/29 02:06:41;;;;;;;20.40;8.90;;;15.30;99.90;;;;;;5058916;28;20193;-71
2022/10/29 02:09:28;;;;;;;21.85;8.13;;;15.30;99.90;;;;;;5077139;28;20298;-72
2022/10/29 02:12:29;;;;;;;17.75;8.25;;;15.40;99.90;;;;;;5078007;28;20198;-70
2022/10/29 02:15:09;;;;;;;16.67;7.93;;;15.40;99.90;;;;;;5076876;28;20244;-73
2022/10/29 02:17:36;;;;;;;18.73;8.57;;;15.50;99.90;;;;;;5075490;28;20245;-70
2022/10/29 02:20:10;;;;;;;21.27;7.78;;;15.50;65.40;;;;;;5064078;28;20204;-72
2022/10/29 02:22:37;;;;;;;23.08;8.73;;;15.50;70.40;;;;;;5059054;28;20207;-71
2022/10/29 02:25:05;;;;;;;21.65;12.05;;;15.40;55.80;;;;;;5075597;28;20194;-70
2022/10/29 02:27:32;;;;;;;29.17;13.52;;;15.40;91.00;;;;;;5094815;28;20229;-71
2022/10/29 02:29:59;;;;;;;25.63;10.90;;;15.30;99.90;;;;;;5096095;28;20190;-71
2022/10/29 02:32:26;;;;;;;20.27;8.60;;;15.30;99.90;;;;;;5095820;28;20281;-71
2022/10/29 02:34:53;;;;;;;22.73;8.65;;;15.20;99.90;;;;;;5096380;28;20206;-71
2022/10/29 02:37:20;;;;;;;19.08;8.43;;;15.10;99.90;;;;;;5098532;28;20232;-65
2022/10/29 02:39:47;;;;;;;20.27;8.83;;;15.00;1.00;;;;;;5062755;28;20213;-68
2022/10/29 02:42:14;;;;;;;18.10;8.33;;;14.90;1.00;;;;;;5097549;28;20190;-67
2022/10/29 02:44:41;;;;;;;17.20;8.17;;;14.90;1.00;;;;;;5095567;28;20327;-65
2022/10/29 02:47:08;;;;;;;17.33;8.53;;;14.90;1.00;;;;;;5095079;28;20247;-66
2022/10/29 02:49:34;;;;;;;24.05;9.25;;;14.80;1.00;;;;;;5068820;28;20703;-67
2022/10/29 02:52:01;;;;;;;17.90;8.57;;;14.90;1.00;;;;;;5094844;28;20198;-66
2022/10/29 02:54:28;;;;;;;16.57;8.53;;;14.90;1.00;;;;;;5096065;28;20569;-66
2022/10/29 02:56:55;;;;;;;16.07;7.97;;;14.80;1.00;;;;;;5097652;28;20893;-66
2022/10/29 02:59:22;;;;;;;23.03;9.63;;;14.80;1.00;;;;;;5063427;28;20291;-66
2022/10/29 03:01:49;;;;;;;17.20;9.00;;;14.70;1.00;;;;;;5082862;28;20292;-66
2022/10/29 03:04:16;;;;;;;20.67;8.97;;;14.60;1.00;;;;;;5085721;28;20657;-66
2022/10/29 03:06:43;;;;;;;16.77;8.85;;;14.60;1.00;;;;;;5078078;28;20756;-66
2022/10/29 03:09:10;;;;;;;22.30;9.90;;;14.60;1.00;;;;;;5097856;28;20185;-64
2022/10/29 03:11:37;;;;;;;23.43;9.80;;;14.50;1.00;;;;;;5077865;28;20204;-64
2022/10/29 03:14:04;;;;;;;18.80;8.87;;;14.40;99.90;;;;;;5095574;28;20201;-65
2022/10/29 03:16:31;;;;;;;19.97;9.33;;;14.30;99.90;;;;;;5095175;28;20201;-65
2022/10/29 03:18:58;;;;;;;22.00;9.32;;;14.30;99.90;;;;;;5094343;28;20207;-66
2022/10/29 03:21:25;;;;;;;22.53;9.27;;;14.30;99.90;;;;;;5066500;28;20285;-65
2022/10/29 03:23:52;;;;;;;18.00;9.23;;;14.30;99.90;;;;;;5067610;28;20201;-66
2022/10/29 03:26:19;;;;;;;22.33;8.20;;;14.30;96.00;;;;;;5076760;28;20268;-64
2022/10/29 03:28:45;;;;;;;16.97;8.97;;;14.20;70.00;;;;;;5095400;28;20197;-66
2022/10/29 03:31:17;;;;;;;24.97;9.17;;;14.30;99.90;;;;;;5070075;28;20220;-66
2022/10/29 03:33:44;;;;;;;17.10;8.30;;;14.30;99.90;;;;;;5097852;28;20219;-65
2022/10/29 03:36:11;;;;;;;15.02;8.93;;;14.30;43.10;;;;;;5076953;28;20313;-65
2022/10/29 03:38:38;;;;;;;18.73;8.30;;;14.30;1.00;;;;;;5095897;28;20236;-66
2022/10/29 03:41:09;;;;;;;18.38;8.93;;;14.30;1.00;;;;;;5078368;28;20209;-67
2022/10/29 03:43:37;;;;;;;20.52;9.68;;;14.30;1.00;;;;;;5062426;28;20208;-67
2022/10/29 03:46:04;;;;;;;17.40;9.30;;;14.30;1.00;;;;;;5063628;28;20204;-65
2022/10/29 03:48:32;;;;;;;16.48;8.90;;;14.30;1.00;;;;;;5096960;28;20186;-67
2022/10/29 03:51:01;;;;;;;16.70;8.77;;;14.30;1.00;;;;;;5095883;28;20193;-65
2022/10/29 03:53:28;;;;;;;16.87;8.37;;;14.20;1.00;;;;;;5097153;28;20193;-67
2022/10/29 03:55:56;;;;;;;23.90;9.67;;;14.20;1.00;;;;;;5077359;28;20194;-65
2022/10/29 03:58:24;;;;;;;22.60;10.30;;;14.00;99.90;;;;;;5079267;28;20201;-64
2022/10/29 04:01:00;;;;;;;20.80;10.73;;;13.80;99.90;;;;;;5096597;28;20198;-65
2022/10/29 04:03:29;;;;;;;22.57;10.30;;;13.70;99.90;;;;;;5094658;28;20204;-66
2022/10/29 04:05:57;;;;;;;20.47;11.17;;;13.70;1.00;;;;;;5085544;28;20189;-66
2022/10/29 04:08:25;;;;;;;24.43;11.27;;;13.60;1.00;;;;;;5094515;28;20216;-65
2022/10/29 04:10:52;;;;;;;30.07;13.13;;;13.50;1.00;;;;;;5094648;28;20295;-66
2022/10/29 04:13:19;;;;;;;25.00;12.07;;;13.60;99.90;;;;;;5095217;28;20228;-67
2022/10/29 04:15:47;;;;;;;20.17;11.10;;;13.70;5.70;;;;;;5096040;28;20677;-66
2022/10/29 04:18:13;;;;;;;18.73;11.43;;;13.80;1.00;;;;;;5083393;28;20210;-68
2022/10/29 04:20:40;;;;;;;23.67;10.80;;;13.90;99.90;;;;;;5061348;28;20204;-69
2022/10/29 04:23:28;;;;;;;19.93;10.30;;;13.90;1.00;;;;;;5085606;28;20583;-67
2022/10/29 04:26:16;;;;;;;22.53;9.47;;;14.00;1.00;;;;;;5077948;28;20232;-68
2022/10/29 04:29:02;;;;;;;17.27;9.73;;;14.00;99.90;;;;;;5080145;28;20198;-68
2022/10/29 04:31:29;;;;;;;17.45;10.10;;;14.10;1.00;;;;;;5094332;28;20225;-65
2022/10/29 04:33:56;;;;;;;30.57;11.93;;;14.00;1.00;;;;;;5082539;28;20201;-62
2022/10/29 04:36:23;;;;;;;21.60;10.50;;;14.00;99.90;;;;;;5097028;28;20213;-62
2022/10/29 04:38:50;;;;;;;20.17;11.80;;;14.00;99.90;;;;;;5094147;28;20317;-62
2022/10/29 04:41:17;;;;;;;19.77;11.30;;;13.90;1.00;;;;;;5077809;28;20239;-63
2022/10/29 04:43:44;;;;;;;27.17;11.33;;;13.90;1.00;;;;;;5075573;28;20194;-62
2022/10/29 04:46:11;;;;;;;21.10;10.53;;;13.90;99.90;;;;;;5084597;28;20189;-62
2022/10/29 04:48:38;;;;;;;21.40;9.97;;;13.90;99.90;;;;;;5098725;28;20284;-64
2022/10/29 04:51:05;;;;;;;26.47;9.90;;;13.90;1.00;;;;;;5099750;28;20201;-66
2022/10/29 04:53:32;;;;;;;19.47;10.53;;;13.90;1.00;;;;;;5089695;28;20194;-65
2022/10/29 04:56:00;;;;;;;24.90;11.47;;;13.90;1.00;;;;;;5097245;28;20239;-66
2022/10/29 04:58:28;;;;;;;20.10;11.63;;;13.90;1.00;;;;;;5097454;28;20214;-67
2022/10/29 05:01:06;;;;;;;24.23;13.93;;;13.90;1.00;;;;;;5088648;28;20233;-66
2022/10/29 05:03:34;;;;;;;22.17;13.13;;;14.00;1.00;;;;;;5081190;28;20224;-68
2022/10/29 05:06:04;;;;;;;27.90;13.60;;;14.00;1.00;;;;;;5098045;28;20202;-67
2022/10/29 05:08:32;;;;;;;24.63;12.23;;;14.00;1.00;;;;;;5079786;28;20256;-66
2022/10/29 05:11:05;;;;;;;25.20;12.73;;;14.00;1.00;;;;;;5064425;28;20321;-66
2022/10/29 05:13:33;;;;;;;27.83;12.87;;;14.00;1.00;;;;;;5085862;28;20204;-66
2022/10/29 05:16:00;;;;;;;27.43;11.60;;;14.00;1.00;;;;;;5080682;28;20293;-66
2022/10/29 05:18:27;;;;;;;22.20;11.77;;;14.00;1.00;;;;;;5098386;28;20248;-66
2022/10/29 05:20:56;;;;;;;21.33;11.40;;;14.00;1.00;;;;;;5079767;28;20289;-67
2022/10/29 05:23:24;;;;;;;27.87;12.23;;;13.90;35.00;;;;;;5099181;28;20193;-66
2022/10/29 05:25:51;;;;;;;24.50;12.53;;;13.90;98.30;;;;;;5098520;28;20229;-67
2022/10/29 05:28:20;;;;;;;21.37;11.97;;;13.90;1.00;;;;;;5078518;28;20208;-64
2022/10/29 05:30:49;;;;;;;22.73;11.53;;;13.80;99.90;;;;;;5078328;28;20735;-64
2022/10/29 05:33:19;;;;;;;27.30;12.60;;;13.70;99.90;;;;;;5079180;28;20198;-65
2022/10/29 05:35:46;;;;;;;22.20;11.70;;;13.70;99.90;;;;;;5076543;28;20307;-64
2022/10/29 05:38:14;;;;;;;23.60;12.50;;;13.70;99.90;;;;;;5081776;28;20241;-64
2022/10/29 05:40:43;;;;;;;22.47;12.87;;;13.70;99.90;;;;;;5098429;28;20194;-64
2022/10/29 05:43:15;;;;;;;25.23;13.33;;;13.70;1.00;;;;;;5098096;28;20583;-64
2022/10/29 05:45:43;;;;;;;22.53;12.30;;;13.70;1.00;;;;;;5078769;28;20276;-66
2022/10/29 05:48:11;;;;;;;21.23;12.10;;;13.70;99.90;;;;;;5080165;28;20198;-68
2022/10/29 05:50:38;;;;;;;20.53;11.23;;;13.80;1.00;;;;;;5093853;28;20217;-68
2022/10/29 05:53:08;;;;;;;26.73;13.00;;;13.80;1.00;;;;;;5099386;28;20740;-66
2022/10/29 05:55:35;;;;;;;29.07;12.07;;;13.90;99.90;;;;;;5065326;28;20201;-66
2022/10/29 05:58:13;;;;;;;29.63;12.20;;;13.90;99.90;;;;;;5066713;28;20249;-66
2022/10/29 06:00:42;;;;;;;21.53;12.43;;;13.90;99.90;;;;;;5099365;28;20744;-66
2022/10/29 06:03:18;;;;;;;23.67;12.93;;;14.00;99.90;;;;;;5081786;28;20280;-67
2022/10/29 06:05:47;;;;;;;21.93;12.20;;;14.00;99.90;;;;;;5088255;28;20246;-69
2022/10/29 06:08:14;;;;;;;27.50;10.77;;;14.00;58.20;;;;;;5099275;28;20211;-68
2022/10/29 06:10:41;;;;;;;26.00;11.02;;;14.00;1.00;;;;;;5098631;28;20208;-67
2022/10/29 06:13:19;;;;;;;21.40;11.77;;;14.00;1.00;;;;;;5067802;28;20194;-68
2022/10/29 06:15:47;;;;;;;26.67;11.33;;;14.10;1.00;;;;;;5096195;28;20217;-65
2022/10/29 06:18:17;;;;;;;18.40;10.47;;;14.10;1.00;;;;;;5096713;28;20300;-67
2022/10/29 06:20:44;;;;;;;21.00;11.67;;;14.10;1.00;;;;;;5081310;28;20273;-68
2022/10/29 06:23:11;;;;;;;21.13;11.40;;;14.20;1.00;;;;;;5098416;28;20188;-66
2022/10/29 06:25:38;;;;;;;30.77;11.30;;;14.20;1.00;;;;;;5080316;28;20186;-65
2022/10/29 06:28:08;;;;;;;20.77;10.43;;;14.20;1.00;;;;;;5080778;28;20201;-67
2022/10/29 06:30:35;;;;;;;20.57;10.67;;;14.10;1.00;;;;;;5097272;28;20292;-65
2022/10/29 06:33:03;;;;;;;19.63;10.98;;;14.20;1.00;;;;;;5094388;28;20225;-65
2022/10/29 06:35:31;;;;;;;21.63;10.77;;;14.20;1.00;;;;;;5098676;28;20700;-61
2022/10/29 06:37:58;;;;;;;18.83;10.27;;;14.10;1.00;;;;;;5098093;28;20215;-64
2022/10/29 06:40:25;;;;;;;22.40;9.90;;;14.20;1.00;;;;;;5098395;28;20301;-62
2022/10/29 06:43:04;;;;;;;19.93;9.97;;;14.20;1.00;;;;;;5098262;28;20236;-64
2022/10/29 06:45:33;;;;;;;23.67;11.37;;;14.30;1.00;;;;;;5096267;28;20272;-65
2022/10/29 06:48:00;;;;;;;19.13;10.33;;;14.30;99.90;;;;;;5082404;28;20196;-64
2022/10/29 06:50:27;;;;;;;19.17;10.40;;;14.30;99.90;;;;;;5095776;28;20205;-64
2022/10/29 06:52:59;;;;;;;27.63;10.57;;;14.20;99.90;;;;;;5096350;28;20836;-64
2022/10/29 06:55:27;;;;;;;24.70;11.27;;;14.20;99.90;;;;;;5077861;28;20791;-64
2022/10/29 06:57:59;;;;;;;22.30;10.40;;;14.30;99.90;;;;;;5084718;28;20201;-65
2022/10/29 07:00:27;;;;;;;17.43;9.67;;;14.40;99.90;;;;;;5087345;28;20182;-65
2022/10/29 07:02:55;;;;;;;17.70;10.00;;;14.40;99.90;;;;;;5066199;28;20198;-65
2022/10/29 07:05:23;;;;;;;16.90;9.80;;;14.50;99.90;;;;;;5074072;28;20194;-64
2022/10/29 07:07:55;;;;;;;16.00;9.40;;;14.50;99.90;;;;;;5095857;28;20430;-64
2022/10/29 07:10:24;;;;;;;17.83;9.65;;;14.60;32.40;;;;;;5095438;28;20187;-64
2022/10/29 07:12:51;;;;;;;22.15;10.35;;;14.60;1.00;;;;;;5078284;28;20198;-66
2022/10/29 07:15:18;;;;;;;22.77;10.45;;;14.70;1.00;;;;;;5086168;28;20290;-64
2022/10/29 07:18:02;;;;;;;20.63;10.32;;;14.80;1.00;;;;;;5098724;28;20193;-64
2022/10/29 07:20:32;;;;;;;20.20;10.35;;;14.80;1.00;;;;;;5085974;28;20190;-64
2022/10/29 07:23:00;;;;;;;18.55;9.35;;;15.00;1.00;;;;;;5094861;28;20284;-63
2022/10/29 07:25:28;;;;;;;30.17;11.05;;;15.00;1.00;;;;;;5096618;28;20277;-64
2022/10/29 07:28:00;;;;;;;24.88;10.13;;;15.10;1.00;;;;;;5086989;28;20201;-65
2022/10/29 07:30:29;;;;;;;19.23;9.98;;;15.20;1.00;;;;;;5095916;28;20189;-64
2022/10/29 07:32:56;;;;;;;22.42;12.13;;;15.30;99.90;;;;;;5079759;28;20209;-65
2022/10/29 07:35:23;;;;;;;20.95;11.30;;;15.20;99.90;;;;;;5086409;28;20201;-65
2022/10/29 07:37:50;;;;;;;16.98;10.15;;;15.20;99.90;;;;;;5086314;28;20199;-64
2022/10/29 07:40:17;;;;;;;29.98;10.52;;;15.30;99.90;;;;;;5096987;28;20190;-65
2022/10/29 07:42:43;;;;;;;22.48;10.15;;;15.40;99.90;;;;;;5094930;28;20647;-64
2022/10/29 07:45:10;;;;;;;19.85;10.10;;;15.40;99.90;;;;;;5085321;28;20212;-64
2022/10/29 07:47:37;;;;;;;26.23;9.82;;;15.50;99.90;;;;;;5080866;28;20221;-65
2022/10/29 07:50:05;;;;;;;19.13;9.35;;;15.70;99.90;;;;;;5097420;28;20189;-68
2022/10/29 07:52:32;;;;;;;16.08;8.77;;;15.80;15.00;;;;;;5063574;28;20729;-68
2022/10/29 07:55:01;;;;;;;14.05;9.25;;;15.90;1.00;;;;;;5086641;28;20194;-67
2022/10/29 07:57:28;;;;;;;20.65;9.30;;;16.00;1.00;;;;;;5089341;28;20198;-67
2022/10/29 07:59:55;;;;;;;18.85;9.05;;;16.10;1.00;;;;;;5086909;28;20218;-67
2022/10/29 08:02:22;;;;;;;19.00;9.50;;;16.10;1.00;;;;;;5102561;28;20186;-67
2022/10/29 08:04:48;;;;;;;24.77;9.23;;;16.10;1.00;;;;;;5099337;28;20214;-66
2022/10/29 08:07:15;;;;;;;19.63;8.90;;;16.10;1.00;;;;;;5080130;28;20193;-66
2022/10/29 08:09:42;;;;;;;20.17;9.40;;;16.00;1.00;;;;;;5070171;28;20201;-67
2022/10/29 08:12:10;;;;;;;20.63;9.57;;;15.90;1.00;;;;;;5080039;28;20190;-67
2022/10/29 08:14:37;;;;;;;15.98;9.20;;;15.90;56.80;;;;;;5088129;28;20229;-63
2022/10/29 08:17:04;;;;;;;17.55;9.73;;;16.00;54.70;;;;;;5100263;28;20223;-64
2022/10/29 08:19:30;;;;;;;19.83;8.73;;;16.10;1.00;;;;;;5096631;28;20228;-63
2022/10/29 08:21:58;;;;;;;24.25;8.90;;;16.40;1.00;;;;;;5079649;28;20684;-67
2022/10/29 08:24:25;;;;;;;14.95;8.63;;;16.80;1.00;;;;;;5100398;28;21130;-64
2022/10/29 08:26:51;;;;;;;16.75;8.20;;;17.00;1.00;;;;;;5080147;28;20778;-64
2022/10/29 08:29:19;;;;;;;20.45;8.10;;;17.10;99.90;;;;;;5046507;28;20198;-66
2022/10/29 08:31:45;;;;;;;14.07;8.75;;;17.50;99.90;;;;;;5053386;28;20194;-65
2022/10/29 08:34:12;;;;;;;18.02;8.35;;;17.70;99.90;;;;;;5080913;28;20195;-65
2022/10/29 08:36:40;;;;;;;22.15;6.97;;;17.80;99.90;;;;;;5080712;28;20211;-65
2022/10/29 08:39:07;;;;;;;19.13;7.60;;;18.10;99.90;;;;;;5079327;28;20761;-64
2022/10/29 08:41:59;;;;;;;20.08;7.30;;;18.20;74.90;;;;;;5064005;28;20288;-65
2022/10/29 08:44:55;;;;;;;18.17;6.63;;;18.30;81.70;;;;;;5053421;28;20213;-66
2022/10/29 08:47:23;;;;;;;25.00;7.28;;;18.60;42.20;;;;;;5065093;28;20676;-65
2022/10/29 08:50:19;;;;;;;24.27;7.05;;;18.80;6.40;;;;;;5064822;28;20199;-63
2022/10/29 08:52:47;;;;;;;15.48;6.95;;;18.80;1.00;;;;;;5069081;28;20199;-62
2022/10/29 08:55:36;;;;;;;17.13;7.35;;;19.00;1.00;;;;;;5077998;28;20202;-63
2022/10/29 08:58:37;;;;;;;17.63;7.75;;;19.10;1.00;;;;;;5063528;28;20209;-65
2022/10/29 09:01:09;;;;;;;20.98;8.50;;;19.30;1.00;;;;;;5062689;28;20190;-64
2022/10/29 09:03:37;;;;;;;15.70;7.45;;;19.10;1.00;;;;;;5080024;28;20255;-66
2022/10/29 09:06:13;;;;;;;24.25;8.13;;;19.10;1.00;;;;;;5078441;28;20223;-63
2022/10/29 09:08:49;;;;;;;18.90;6.80;;;19.30;1.00;;;;;;5062972;28;20208;-64
2022/10/29 09:11:38;;;;;;;20.05;7.15;;;19.60;1.00;;;;;;5055163;28;20198;-64
2022/10/29 09:14:27;;;;;;;23.30;6.78;;;20.20;1.00;;;;;;5075152;28;20201;-64
2022/10/29 09:17:14;;;;;;;16.10;6.63;;;19.90;1.00;;;;;;5079163;28;20199;-65
2022/10/29 09:19:52;;;;;;;14.38;5.70;;;21.90;1.00;;;;;;5078236;28;20693;-65
2022/10/29 09:22:37;;;;;;;15.98;5.95;;;24.40;1.00;;;;;;5064132;28;20258;-65
2022/10/29 09:25:13;;;;;;;16.88;6.43;;;24.60;1.00;;;;;;5082188;28;20269;-66
2022/10/29 09:27:59;;;;;;;17.45;5.38;;;24.30;1.00;;;;;;5096541;28;20231;-65
2022/10/29 09:30:30;;;;;;;11.77;5.70;;;25.20;1.00;;;;;;5099583;28;20208;-66
2022/10/29 09:33:09;;;;;;;16.63;5.40;;;27.10;1.00;;;;;;5101108;28;20281;-66
2022/10/29 09:35:40;;;;;;;16.00;5.80;;;26.20;1.00;;;;;;5088391;28;20198;-66
2022/10/29 09:38:23;;;;;;;17.55;5.57;;;27.40;1.00;;;;;;5083098;28;20219;-66
2022/10/29 09:40:50;;;;;;;15.70;6.13;;;29.90;1.00;;;;;;5099280;28;20201;-68
2022/10/29 09:43:20;;;;;;;13.13;5.22;;;28.30;1.00;;;;;;5101747;28;20754;-65
2022/10/29 09:45:54;;;;;;;15.63;5.57;;;25.90;1.00;;;;;;5098209;28;20439;-67
2022/10/29 09:48:34;;;;;;;14.13;5.38;;;24.40;1.00;;;;;;5101397;28;20186;-66
2022/10/29 09:51:30;;;;;;;15.13;6.18;;;22.30;1.00;;;;;;5097036;28;20193;-65
2022/10/29 09:53:57;;;;;;;12.32;5.20;;;21.80;1.00;;;;;;5071013;28;20198;-66
2022/10/29 09:56:24;;;;;;;21.33;5.90;;;23.40;1.00;;;;;;5083658;28;20549;-65
2022/10/29 09:59:08;;;;;;;18.73;6.00;;;23.80;1.00;;;;;;5098573;28;20210;-66
2022/10/29 10:01:35;;;;;;;12.07;5.50;;;23.20;1.00;;;;;;5098172;28;20284;-66
2022/10/29 10:04:22;;;;;;;15.57;5.53;;;23.20;1.00;;;;;;5089681;28;20205;-66
2022/10/29 10:07:07;;;;;;;17.27;5.68;;;23.70;1.00;;;;;;5080250;28;20550;-67
2022/10/29 10:09:58;;;;;;;15.50;5.75;;;24.40;1.00;;;;;;5081267;28;20907;-65
2022/10/29 10:12:44;;;;;;;15.38;5.82;;;24.10;1.00;;;;;;5101402;28;20617;-66
2022/10/29 10:15:19;;;;;;;14.18;5.63;;;24.00;1.00;;;;;;5070252;28;20202;-68
2022/10/29 10:17:58;;;;;;;16.55;6.63;;;24.90;1.00;;;;;;5084613;28;20282;-65
2022/10/29 10:20:34;;;;;;;15.82;6.70;;;24.80;1.00;;;;;;5096345;28;20319;-65
2022/10/29 10:23:19;;;;;;;17.25;6.68;;;24.20;1.00;;;;;;5080315;28;20198;-65
2022/10/29 10:25:46;;;;;;;18.20;6.47;;;25.30;1.00;;;;;;5081087;28;20289;-67
2022/10/29 10:28:16;;;;;;;13.23;5.95;;;25.60;1.00;;;;;;5077775;28;20201;-66
2022/10/29 10:31:05;;;;;;;20.90;6.07;;;25.00;1.00;;;;;;5048615;28;20694;-67
2022/10/29 10:33:33;;;;;;;15.82;6.13;;;24.20;1.00;;;;;;5060935;28;20202;-66
2022/10/29 10:36:05;;;;;;;14.05;5.90;;;24.50;1.00;;;;;;5062125;28;20218;-66
2022/10/29 10:38:45;;;;;;;19.23;5.47;;;25.30;1.00;;;;;;5078992;28;20187;-66
2022/10/29 10:41:14;;;;;;;14.15;5.55;;;24.80;1.00;;;;;;5079281;28;20286;-66
2022/10/29 10:43:43;;;;;;;14.30;6.10;;;22.60;1.00;;;;;;5044918;28;20847;-67
2022/10/29 10:46:24;;;;;;;19.50;7.22;;;22.30;1.00;;;;;;5079627;28;20252;-65
2022/10/29 10:49:01;;;;;;;16.50;5.85;;;22.00;1.00;;;;;;5077733;28;20285;-66
2022/10/29 10:51:36;;;;;;;14.85;5.90;;;23.70;1.00;;;;;;5062054;28;20281;-66
2022/10/29 10:54:24;;;;;;;14.00;5.78;;;25.90;1.00;;;;;;5077052;28;20193;-68
2022/10/29 10:57:10;;;;;;;17.15;6.50;;;25.50;1.00;;;;;;5075682;28;20193;-66
2022/10/29 10:59:54;;;;;;;21.92;6.43;;;24.40;1.00;;;;;;5078718;28;20240;-67
2022/10/29 11:02:25;;;;;;;19.65;6.25;;;25.40;1.00;;;;;;5074550;28;20277;-67
2022/10/29 11:04:58;;;;;;;18.02;6.00;;;25.20;1.00;;;;;;5079131;28;20205;-67
2022/10/29 11:07:35;;;;;;;18.95;5.82;;;24.00;1.00;;;;;;5051471;28;20221;-66
2022/10/29 11:10:05;;;;;;;16.63;6.45;;;23.70;1.00;;;;;;5075647;28;20204;-68
2022/10/29 11:12:43;;;;;;;17.88;6.35;;;24.20;1.00;;;;;;5074317;28;21863;-67
2022/10/29 11:15:24;;;;;;;18.95;6.45;;;24.00;1.00;;;;;;5060563;28;20292;-65
2022/10/29 11:17:56;;;;;;;15.00;6.05;;;24.40;1.00;;;;;;5065304;28;20271;-65
2022/10/29 11:20:33;;;;;;;13.45;5.40;;;25.10;1.00;;;;;;5078463;28;20233;-65
2022/10/29 11:23:21;;;;;;;18.77;6.60;;;25.40;1.00;;;;;;5060397;28;20194;-65
2022/10/29 11:26:04;;;;;;;16.35;5.88;;;24.90;1.00;;;;;;5063617;28;20260;-66
2022/10/29 11:28:37;;;;;;;11.68;5.50;;;24.40;1.00;;;;;;5094652;28;20190;-65
2022/10/29 11:31:13;;;;;;;14.93;5.35;;;26.10;1.00;;;;;;5096413;28;20700;-65
2022/10/29 11:33:49;;;;;;;15.10;5.10;;;27.40;1.00;;;;;;5062160;28;20266;-66
2022/10/29 11:36:22;;;;;;;15.25;5.18;;;27.70;1.00;;;;;;5093222;28;20220;-66
2022/10/29 11:39:03;;;;;;;15.13;5.18;;;29.00;1.00;;;;;;5078820;28;20215;-65
2022/10/29 11:41:54;;;;;;;13.10;5.50;;;29.10;1.00;;;;;;5095121;28;20778;-65
2022/10/29 11:44:21;;;;;;;18.25;5.03;;;30.20;1.00;;;;;;5094850;28;20239;-66
2022/10/29 11:47:06;;;;;;;15.23;5.38;;;29.30;1.00;;;;;;5078613;28;20199;-69
2022/10/29 11:49:36;;;;;;;19.67;5.78;;;28.00;1.00;;;;;;5080591;28;20206;-64
2022/10/29 11:52:31;;;;;;;12.00;5.22;;;27.70;1.00;;;;;;5079128;28;20435;-66
2022/10/29 11:55:20;;;;;;;11.85;4.38;;;27.20;1.00;;;;;;5091189;28;20268;-65
2022/10/29 11:57:52;;;;;;;14.45;5.03;;;26.50;1.00;;;;;;5084645;28;20213;-66
2022/10/29 12:00:22;;;;;;;15.68;5.00;;;25.60;1.00;;;;;;5099691;28;20444;-65
2022/10/29 12:03:19;;;;;;;14.68;4.88;;;24.70;1.00;;;;;;5090416;28;20215;-66
2022/10/29 12:06:03;;;;;;;9.93;4.68;;;25.90;1.00;;;;;;5101257;28;20277;-65
2022/10/29 12:08:51;;;;;;;15.88;5.60;;;26.50;1.00;;;;;;5082914;28;22530;-65
2022/10/29 12:11:20;;;;;;;14.23;4.80;;;26.50;1.00;;;;;;5082047;28;20212;-65
2022/10/29 12:14:09;;;;;;;14.02;5.15;;;26.70;1.00;;;;;;5084074;28;20676;-66
2022/10/29 12:16:49;;;;;;;19.25;4.93;;;27.20;1.00;;;;;;5083224;28;20198;-68
2022/10/29 12:19:22;;;;;;;13.02;4.70;;;27.70;1.00;;;;;;5096680;28;20687;-66
2022/10/29 12:22:01;;;;;;;15.80;4.68;;;26.80;1.00;;;;;;5087383;28;20210;-65
2022/10/29 12:25:00;;;;;;;13.50;4.35;;;26.10;1.00;;;;;;5103146;28;20728;-66
2022/10/29 12:27:53;;;;;;;18.00;5.13;;;26.50;1.00;;;;;;5097646;28;20356;-66
2022/10/29 12:30:23;;;;;;;14.85;4.70;;;26.30;1.00;;;;;;5101669;28;20208;-66
2022/10/29 12:33:05;;;;;;;13.95;4.80;;;26.50;1.00;;;;;;5082857;28;20217;-68
2022/10/29 12:35:50;;;;;;;16.35;4.50;;;26.30;1.00;;;;;;5072648;28;20236;-65
2022/10/29 12:38:38;;;;;;;18.25;4.68;;;25.90;1.00;;;;;;5099218;28;20193;-66
2022/10/29 12:41:23;;;;;;;22.73;4.95;;;26.10;1.00;;;;;;5102362;28;20336;-67
2022/10/29 12:43:57;;;;;;;12.68;4.75;;;25.90;1.00;;;;;;5089200;28;20201;-66
2022/10/29 12:46:38;;;;;;;12.02;4.32;;;25.50;1.00;;;;;;5083745;28;20178;-66
2022/10/29 12:49:32;;;;;;;17.50;4.93;;;25.50;1.00;;;;;;5079806;28;20186;-66
2022/10/29 12:52:08;;;;;;;22.70;4.63;;;25.40;1.00;;;;;;5088908;28;20201;-66
2022/10/29 12:54:49;;;;;;;13.95;4.00;;;25.20;1.00;;;;;;5084760;28;20811;-67
2022/10/29 12:57:16;;;;;;;18.70;4.28;;;25.20;1.00;;;;;;5094717;28;20182;-68
2022/10/29 12:59:44;;;;;;;13.95;4.18;;;25.00;1.00;;;;;;5095961;28;20218;-66
2022/10/29 13:02:20;;;;;;;16.70;4.57;;;24.90;1.00;;;;;;5095579;28;20194;-66
2022/10/29 13:05:05;;;;;;;15.98;3.90;;;24.80;1.00;;;;;;5100181;28;20197;-66
2022/10/29 13:07:33;;;;;;;10.68;4.22;;;24.80;1.00;;;;;;5097276;28;20186;-66
2022/10/29 13:10:23;;;;;;;18.50;5.03;;;24.70;1.00;;;;;;5080854;28;20194;-67
2022/10/29 13:13:04;;;;;;;14.02;4.50;;;24.40;1.00;;;;;;5097899;28;20198;-60